sensor_id;sensor_type;location;lat;lon;timestamp;P1;durP1;ratioP1;P2;durP2;ratioP2
61696;SDS011;47610;52.252;20.922;2023-07-29T00:04:41;8.80;;;4.80;;
61696;SDS011;47610;52.252;20.922;2023-07-29T00:09:44;7.10;;;4.40;;
61696;SDS011;47610;52.252;20.922;2023-07-29T00:14:47;6.50;;;4.40;;
61696;SDS011;47610;52.252;20.922;2023-07-29T00:19:50;6.40;;;4.10;;
61696;SDS011;47610;52.252;20.922;2023-07-29T00:24:53;11.40;;;4.30;;
61696;SDS011;47610;52.252;20.922;2023-07-29T00:29:56;7.00;;;4.30;;
61696;SDS011;47610;52.252;20.922;2023-07-29T00:34:59;8.90;;;5.30;;
61696;SDS011;47610;52.252;20.922;2023-07-29T00:40:03;12.70;;;5.70;;
61696;SDS011;47610;52.252;20.922;2023-07-29T00:45:11;10.30;;;6.20;;
61696;SDS011;47610;52.252;20.922;2023-07-29T00:50:14;8.90;;;6.70;;
61696;SDS011;47610;52.252;20.922;2023-07-29T00:55:18;10.10;;;6.00;;
61696;SDS011;47610;52.252;20.922;2023-07-29T01:00:22;9.90;;;6.80;;
61696;SDS011;47610;52.252;20.922;2023-07-29T01:05:28;15.80;;;8.00;;
61696;SDS011;47610;52.252;20.922;2023-07-29T01:10:39;11.40;;;7.80;;
61696;SDS011;47610;52.252;20.922;2023-07-29T01:15:48;17.50;;;8.00;;
61696;SDS011;47610;52.252;20.922;2023-07-29T01:20:58;10.70;;;7.40;;
61696;SDS011;47610;52.252;20.922;2023-07-29T01:26:05;11.90;;;6.60;;
61696;SDS011;47610;52.252;20.922;2023-07-29T01:31:10;11.20;;;6.50;;
61696;SDS011;47610;52.252;20.922;2023-07-29T01:36:18;10.30;;;6.90;;
61696;SDS011;47610;52.252;20.922;2023-07-29T01:41:24;10.60;;;6.60;;
61696;SDS011;47610;52.252;20.922;2023-07-29T01:46:28;7.90;;;6.00;;
61696;SDS011;47610;52.252;20.922;2023-07-29T01:51:33;7.70;;;5.80;;
61696;SDS011;47610;52.252;20.922;2023-07-29T01:56:36;7.90;;;5.70;;
61696;SDS011;47610;52.252;20.922;2023-07-29T02:01:39;9.00;;;5.30;;
61696;SDS011;47610;52.252;20.922;2023-07-29T02:06:42;8.60;;;5.40;;
61696;SDS011;47610;52.252;20.922;2023-07-29T02:11:45;8.20;;;5.50;;
61696;SDS011;47610;52.252;20.922;2023-07-29T02:16:48;9.80;;;5.90;;
61696;SDS011;47610;52.252;20.922;2023-07-29T02:21:51;8.90;;;5.60;;
61696;SDS011;47610;52.252;20.922;2023-07-29T02:26:54;8.20;;;6.30;;
61696;SDS011;47610;52.252;20.922;2023-07-29T02:31:58;7.00;;;5.60;;
61696;SDS011;47610;52.252;20.922;2023-07-29T02:37:01;8.20;;;6.30;;
61696;SDS011;47610;52.252;20.922;2023-07-29T02:42:04;8.30;;;6.00;;
61696;SDS011;47610;52.252;20.922;2023-07-29T02:47:07;8.80;;;5.90;;
61696;SDS011;47610;52.252;20.922;2023-07-29T02:52:10;6.90;;;5.00;;
61696;SDS011;47610;52.252;20.922;2023-07-29T02:57:14;7.60;;;5.80;;
61696;SDS011;47610;52.252;20.922;2023-07-29T03:02:17;6.90;;;4.90;;
61696;SDS011;47610;52.252;20.922;2023-07-29T03:07:20;8.40;;;5.00;;
61696;SDS011;47610;52.252;20.922;2023-07-29T03:12:23;6.40;;;5.00;;
61696;SDS011;47610;52.252;20.922;2023-07-29T03:17:26;6.30;;;4.90;;
61696;SDS011;47610;52.252;20.922;2023-07-29T03:22:29;5.90;;;4.70;;
61696;SDS011;47610;52.252;20.922;2023-07-29T03:27:32;9.60;;;5.10;;
61696;SDS011;47610;52.252;20.922;2023-07-29T03:32:37;5.70;;;5.00;;
61696;SDS011;47610;52.252;20.922;2023-07-29T03:37:42;6.40;;;5.10;;
61696;SDS011;47610;52.252;20.922;2023-07-29T03:42:45;7.40;;;5.50;;
61696;SDS011;47610;52.252;20.922;2023-07-29T03:47:48;6.50;;;5.20;;
61696;SDS011;47610;52.252;20.922;2023-07-29T03:52:51;4.90;;;4.20;;
61696;SDS011;47610;52.252;20.922;2023-07-29T03:57:54;7.20;;;4.20;;
61696;SDS011;47610;52.252;20.922;2023-07-29T04:02:57;9.10;;;4.70;;
61696;SDS011;47610;52.252;20.922;2023-07-29T04:08:00;13.40;;;5.70;;
61696;SDS011;47610;52.252;20.922;2023-07-29T04:13:04;14.50;;;6.50;;
61696;SDS011;47610;52.252;20.922;2023-07-29T04:18:07;12.20;;;5.60;;
61696;SDS011;47610;52.252;20.922;2023-07-29T04:23:10;15.90;;;6.60;;
61696;SDS011;47610;52.252;20.922;2023-07-29T04:28:13;11.60;;;6.50;;
61696;SDS011;47610;52.252;20.922;2023-07-29T04:33:16;14.80;;;6.50;;
61696;SDS011;47610;52.252;20.922;2023-07-29T04:38:19;8.50;;;5.30;;
61696;SDS011;47610;52.252;20.922;2023-07-29T04:43:22;6.10;;;4.80;;
61696;SDS011;47610;52.252;20.922;2023-07-29T04:48:27;4.90;;;3.90;;
61696;SDS011;47610;52.252;20.922;2023-07-29T04:53:30;5.60;;;3.80;;
61696;SDS011;47610;52.252;20.922;2023-07-29T04:58:33;4.60;;;4.00;;
61696;SDS011;47610;52.252;20.922;2023-07-29T05:03:36;6.80;;;4.10;;
61696;SDS011;47610;52.252;20.922;2023-07-29T05:08:40;5.10;;;3.90;;
61696;SDS011;47610;52.252;20.922;2023-07-29T05:13:43;4.90;;;4.40;;
61696;SDS011;47610;52.252;20.922;2023-07-29T05:18:46;6.90;;;4.50;;
61696;SDS011;47610;52.252;20.922;2023-07-29T05:23:49;7.00;;;5.00;;
61696;SDS011;47610;52.252;20.922;2023-07-29T05:28:52;9.30;;;7.20;;
61696;SDS011;47610;52.252;20.922;2023-07-29T05:33:55;10.10;;;7.80;;
61696;SDS011;47610;52.252;20.922;2023-07-29T05:38:58;9.50;;;7.70;;
61696;SDS011;47610;52.252;20.922;2023-07-29T05:44:01;9.50;;;7.60;;
61696;SDS011;47610;52.252;20.922;2023-07-29T05:49:04;11.00;;;8.80;;
61696;SDS011;47610;52.252;20.922;2023-07-29T05:54:07;10.30;;;8.20;;
61696;SDS011;47610;52.252;20.922;2023-07-29T05:59:10;13.00;;;9.50;;
61696;SDS011;47610;52.252;20.922;2023-07-29T06:04:13;9.10;;;7.60;;
61696;SDS011;47610;52.252;20.922;2023-07-29T06:09:16;10.40;;;9.30;;
61696;SDS011;47610;52.252;20.922;2023-07-29T06:14:19;11.20;;;7.90;;
61696;SDS011;47610;52.252;20.922;2023-07-29T06:19:22;9.50;;;8.10;;
61696;SDS011;47610;52.252;20.922;2023-07-29T06:24:25;10.30;;;8.40;;
61696;SDS011;47610;52.252;20.922;2023-07-29T06:29:29;10.30;;;8.90;;
61696;SDS011;47610;52.252;20.922;2023-07-29T06:34:32;10.20;;;8.80;;
61696;SDS011;47610;52.252;20.922;2023-07-29T06:39:35;10.10;;;8.10;;
61696;SDS011;47610;52.252;20.922;2023-07-29T06:44:38;11.30;;;8.40;;
61696;SDS011;47610;52.252;20.922;2023-07-29T06:49:41;10.30;;;8.50;;
61696;SDS011;47610;52.252;20.922;2023-07-29T06:54:44;9.80;;;8.80;;
61696;SDS011;47610;52.252;20.922;2023-07-29T06:59:47;11.60;;;9.80;;
61696;SDS011;47610;52.252;20.922;2023-07-29T07:04:50;10.80;;;8.70;;
61696;SDS011;47610;52.252;20.922;2023-07-29T07:09:53;10.40;;;9.30;;
61696;SDS011;47610;52.252;20.922;2023-07-29T07:14:56;9.50;;;8.60;;
61696;SDS011;47610;52.252;20.922;2023-07-29T07:19:59;9.60;;;8.60;;
61696;SDS011;47610;52.252;20.922;2023-07-29T07:25:03;8.70;;;7.70;;
61696;SDS011;47610;52.252;20.922;2023-07-29T07:30:07;13.40;;;8.10;;
61696;SDS011;47610;52.252;20.922;2023-07-29T07:35:11;9.00;;;8.10;;
61696;SDS011;47610;52.252;20.922;2023-07-29T07:40:14;10.40;;;7.60;;
61696;SDS011;47610;52.252;20.922;2023-07-29T07:45:17;9.00;;;6.40;;
61696;SDS011;47610;52.252;20.922;2023-07-29T07:50:21;7.90;;;6.20;;
61696;SDS011;47610;52.252;20.922;2023-07-29T07:55:24;8.20;;;6.10;;
61696;SDS011;47610;52.252;20.922;2023-07-29T08:00:27;7.70;;;6.70;;
61696;SDS011;47610;52.252;20.922;2023-07-29T08:05:30;7.70;;;6.00;;
61696;SDS011;47610;52.252;20.922;2023-07-29T08:10:33;7.00;;;5.50;;
61696;SDS011;47610;52.252;20.922;2023-07-29T08:15:36;10.30;;;6.60;;
61696;SDS011;47610;52.252;20.922;2023-07-29T08:20:39;6.60;;;5.40;;
61696;SDS011;47610;52.252;20.922;2023-07-29T08:25:42;9.60;;;5.00;;
61696;SDS011;47610;52.252;20.922;2023-07-29T08:30:45;8.50;;;5.50;;
61696;SDS011;47610;52.252;20.922;2023-07-29T08:35:48;6.70;;;4.20;;
61696;SDS011;47610;52.252;20.922;2023-07-29T08:40:53;12.10;;;4.00;;
61696;SDS011;47610;52.252;20.922;2023-07-29T08:46:00;4.50;;;3.40;;
61696;SDS011;47610;52.252;20.922;2023-07-29T08:51:03;3.60;;;3.10;;
61696;SDS011;47610;52.252;20.922;2023-07-29T08:56:07;4.30;;;2.40;;
61696;SDS011;47610;52.252;20.922;2023-07-29T09:01:10;3.50;;;2.20;;
61696;SDS011;47610;52.252;20.922;2023-07-29T09:06:15;3.50;;;2.30;;
61696;SDS011;47610;52.252;20.922;2023-07-29T09:11:19;2.20;;;1.70;;
61696;SDS011;47610;52.252;20.922;2023-07-29T09:16:23;3.60;;;2.30;;
61696;SDS011;47610;52.252;20.922;2023-07-29T09:21:27;3.10;;;2.20;;
61696;SDS011;47610;52.252;20.922;2023-07-29T09:26:30;2.80;;;1.80;;
61696;SDS011;47610;52.252;20.922;2023-07-29T09:31:33;2.60;;;1.60;;
61696;SDS011;47610;52.252;20.922;2023-07-29T09:41:38;3.40;;;1.50;;
61696;SDS011;47610;52.252;20.922;2023-07-29T09:46:41;1.70;;;1.00;;
61696;SDS011;47610;52.252;20.922;2023-07-29T09:51:48;1.90;;;1.50;;
61696;SDS011;47610;52.252;20.922;2023-07-29T09:56:51;4.00;;;1.80;;
61696;SDS011;47610;52.252;20.922;2023-07-29T10:01:55;4.30;;;2.20;;
61696;SDS011;47610;52.252;20.922;2023-07-29T10:06:58;5.20;;;2.30;;
61696;SDS011;47610;52.252;20.922;2023-07-29T10:12:03;4.90;;;2.70;;
61696;SDS011;47610;52.252;20.922;2023-07-29T10:17:09;1.90;;;1.40;;
61696;SDS011;47610;52.252;20.922;2023-07-29T10:22:12;2.90;;;1.50;;
61696;SDS011;47610;52.252;20.922;2023-07-29T10:27:18;2.40;;;1.60;;
61696;SDS011;47610;52.252;20.922;2023-07-29T10:32:24;3.50;;;1.70;;
61696;SDS011;47610;52.252;20.922;2023-07-29T10:37:28;2.20;;;1.60;;
61696;SDS011;47610;52.252;20.922;2023-07-29T10:47:33;2.50;;;1.90;;
61696;SDS011;47610;52.252;20.922;2023-07-29T10:52:40;3.30;;;1.30;;
61696;SDS011;47610;52.252;20.922;2023-07-29T10:57:43;3.90;;;2.50;;
61696;SDS011;47610;52.252;20.922;2023-07-29T11:02:56;3.50;;;1.60;;
61696;SDS011;47610;52.252;20.922;2023-07-29T11:08:00;2.70;;;1.60;;
61696;SDS011;47610;52.252;20.922;2023-07-29T11:13:19;2.30;;;1.30;;
61696;SDS011;47610;52.252;20.922;2023-07-29T11:18:22;4.60;;;1.40;;
61696;SDS011;47610;52.252;20.922;2023-07-29T11:23:31;4.20;;;1.40;;
61696;SDS011;47610;52.252;20.922;2023-07-29T11:28:38;3.80;;;1.60;;
61696;SDS011;47610;52.252;20.922;2023-07-29T11:33:42;2.50;;;1.50;;
61696;SDS011;47610;52.252;20.922;2023-07-29T11:38:46;2.50;;;1.50;;
61696;SDS011;47610;52.252;20.922;2023-07-29T11:43:49;3.20;;;1.30;;
61696;SDS011;47610;52.252;20.922;2023-07-29T11:48:53;3.00;;;1.40;;
61696;SDS011;47610;52.252;20.922;2023-07-29T11:53:56;2.50;;;1.50;;
61696;SDS011;47610;52.252;20.922;2023-07-29T11:58:59;3.30;;;1.50;;
61696;SDS011;47610;52.252;20.922;2023-07-29T12:04:02;2.40;;;1.50;;
61696;SDS011;47610;52.252;20.922;2023-07-29T12:09:06;2.50;;;1.60;;
61696;SDS011;47610;52.252;20.922;2023-07-29T12:14:09;2.20;;;1.40;;
61696;SDS011;47610;52.252;20.922;2023-07-29T12:19:13;2.60;;;1.50;;
61696;SDS011;47610;52.252;20.922;2023-07-29T12:24:16;2.00;;;1.30;;
61696;SDS011;47610;52.252;20.922;2023-07-29T12:29:19;3.40;;;1.70;;
61696;SDS011;47610;52.252;20.922;2023-07-29T12:34:25;4.60;;;1.90;;
61696;SDS011;47610;52.252;20.922;2023-07-29T12:39:29;2.80;;;1.70;;
61696;SDS011;47610;52.252;20.922;2023-07-29T12:44:34;5.20;;;1.60;;
61696;SDS011;47610;52.252;20.922;2023-07-29T12:49:38;2.20;;;1.60;;
61696;SDS011;47610;52.252;20.922;2023-07-29T12:54:41;2.30;;;1.50;;
61696;SDS011;47610;52.252;20.922;2023-07-29T12:59:44;2.70;;;1.70;;
61696;SDS011;47610;52.252;20.922;2023-07-29T13:04:47;2.60;;;1.50;;
61696;SDS011;47610;52.252;20.922;2023-07-29T13:09:50;3.30;;;1.50;;
61696;SDS011;47610;52.252;20.922;2023-07-29T13:14:53;2.00;;;1.40;;
61696;SDS011;47610;52.252;20.922;2023-07-29T13:19:56;2.10;;;1.70;;
61696;SDS011;47610;52.252;20.922;2023-07-29T13:24:59;9.00;;;2.00;;
61696;SDS011;47610;52.252;20.922;2023-07-29T13:30:02;2.40;;;1.60;;
61696;SDS011;47610;52.252;20.922;2023-07-29T13:35:07;2.70;;;1.60;;
61696;SDS011;47610;52.252;20.922;2023-07-29T13:40:11;3.20;;;1.60;;
61696;SDS011;47610;52.252;20.922;2023-07-29T13:45:14;2.60;;;1.70;;
61696;SDS011;47610;52.252;20.922;2023-07-29T13:50:17;3.10;;;1.70;;
61696;SDS011;47610;52.252;20.922;2023-07-29T13:55:20;2.40;;;1.50;;
61696;SDS011;47610;52.252;20.922;2023-07-29T14:00:24;3.70;;;1.70;;
61696;SDS011;47610;52.252;20.922;2023-07-29T14:05:27;2.00;;;1.30;;
61696;SDS011;47610;52.252;20.922;2023-07-29T14:10:31;4.60;;;1.60;;
61696;SDS011;47610;52.252;20.922;2023-07-29T14:15:34;3.00;;;1.60;;
61696;SDS011;47610;52.252;20.922;2023-07-29T14:20:37;1.80;;;1.20;;
61696;SDS011;47610;52.252;20.922;2023-07-29T14:25:40;2.50;;;1.70;;
61696;SDS011;47610;52.252;20.922;2023-07-29T14:30:43;2.70;;;1.50;;
61696;SDS011;47610;52.252;20.922;2023-07-29T14:35:46;3.60;;;1.70;;
61696;SDS011;47610;52.252;20.922;2023-07-29T14:40:49;2.10;;;1.60;;
61696;SDS011;47610;52.252;20.922;2023-07-29T14:45:52;4.00;;;1.60;;
61696;SDS011;47610;52.252;20.922;2023-07-29T14:50:55;2.50;;;1.50;;
61696;SDS011;47610;52.252;20.922;2023-07-29T14:55:59;1.80;;;1.40;;
61696;SDS011;47610;52.252;20.922;2023-07-29T15:01:02;4.70;;;1.50;;
61696;SDS011;47610;52.252;20.922;2023-07-29T15:06:05;3.70;;;1.50;;
61696;SDS011;47610;52.252;20.922;2023-07-29T15:11:08;2.60;;;1.60;;
61696;SDS011;47610;52.252;20.922;2023-07-29T15:16:11;4.00;;;1.40;;
61696;SDS011;47610;52.252;20.922;2023-07-29T15:21:14;3.10;;;1.60;;
61696;SDS011;47610;52.252;20.922;2023-07-29T15:26:17;2.90;;;1.60;;
61696;SDS011;47610;52.252;20.922;2023-07-29T15:31:20;2.60;;;1.80;;
61696;SDS011;47610;52.252;20.922;2023-07-29T15:36:23;3.80;;;1.60;;
61696;SDS011;47610;52.252;20.922;2023-07-29T15:41:26;5.90;;;1.60;;
61696;SDS011;47610;52.252;20.922;2023-07-29T15:46:31;2.10;;;1.40;;
61696;SDS011;47610;52.252;20.922;2023-07-29T15:56:36;2.80;;;2.30;;
61696;SDS011;47610;52.252;20.922;2023-07-29T16:01:39;4.20;;;1.70;;
61696;SDS011;47610;52.252;20.922;2023-07-29T16:06:42;2.90;;;1.60;;
61696;SDS011;47610;52.252;20.922;2023-07-29T16:11:45;2.80;;;1.50;;
61696;SDS011;47610;52.252;20.922;2023-07-29T16:16:48;2.40;;;1.50;;
61696;SDS011;47610;52.252;20.922;2023-07-29T16:21:51;3.90;;;1.90;;
61696;SDS011;47610;52.252;20.922;2023-07-29T16:26:55;2.90;;;1.80;;
61696;SDS011;47610;52.252;20.922;2023-07-29T16:31:58;2.60;;;1.50;;
61696;SDS011;47610;52.252;20.922;2023-07-29T16:37:01;2.20;;;1.80;;
61696;SDS011;47610;52.252;20.922;2023-07-29T16:42:04;3.30;;;1.90;;
61696;SDS011;47610;52.252;20.922;2023-07-29T16:47:08;4.60;;;2.80;;
61696;SDS011;47610;52.252;20.922;2023-07-29T16:52:11;2.90;;;2.10;;
61696;SDS011;47610;52.252;20.922;2023-07-29T16:57:14;4.40;;;2.20;;
61696;SDS011;47610;52.252;20.922;2023-07-29T17:02:17;2.90;;;1.80;;
61696;SDS011;47610;52.252;20.922;2023-07-29T17:07:20;3.90;;;2.10;;
61696;SDS011;47610;52.252;20.922;2023-07-29T17:12:23;3.70;;;2.20;;
61696;SDS011;47610;52.252;20.922;2023-07-29T17:17:26;3.40;;;2.20;;
61696;SDS011;47610;52.252;20.922;2023-07-29T17:22:29;2.70;;;1.90;;
61696;SDS011;47610;52.252;20.922;2023-07-29T17:27:32;3.60;;;2.40;;
61696;SDS011;47610;52.252;20.922;2023-07-29T17:32:36;3.90;;;2.30;;
61696;SDS011;47610;52.252;20.922;2023-07-29T17:37:39;2.80;;;2.20;;
61696;SDS011;47610;52.252;20.922;2023-07-29T17:42:42;4.90;;;2.40;;
61696;SDS011;47610;52.252;20.922;2023-07-29T17:47:45;3.10;;;2.20;;
61696;SDS011;47610;52.252;20.922;2023-07-29T17:52:48;4.30;;;2.20;;
61696;SDS011;47610;52.252;20.922;2023-07-29T17:57:51;6.30;;;2.80;;
61696;SDS011;47610;52.252;20.922;2023-07-29T18:02:54;5.10;;;2.10;;
61696;SDS011;47610;52.252;20.922;2023-07-29T18:07:57;2.90;;;2.40;;
61696;SDS011;47610;52.252;20.922;2023-07-29T18:13:00;3.70;;;2.50;;
61696;SDS011;47610;52.252;20.922;2023-07-29T18:18:04;5.60;;;2.40;;
61696;SDS011;47610;52.252;20.922;2023-07-29T18:23:07;3.60;;;2.40;;
61696;SDS011;47610;52.252;20.922;2023-07-29T18:28:10;6.40;;;2.60;;
61696;SDS011;47610;52.252;20.922;2023-07-29T18:33:13;3.60;;;2.50;;
61696;SDS011;47610;52.252;20.922;2023-07-29T18:38:16;5.60;;;4.20;;
61696;SDS011;47610;52.252;20.922;2023-07-29T18:43:19;3.30;;;2.30;;
61696;SDS011;47610;52.252;20.922;2023-07-29T18:48:22;6.90;;;2.80;;
61696;SDS011;47610;52.252;20.922;2023-07-29T18:53:25;4.60;;;2.50;;
61696;SDS011;47610;52.252;20.922;2023-07-29T18:58:28;4.40;;;2.80;;
61696;SDS011;47610;52.252;20.922;2023-07-29T19:03:31;5.10;;;2.60;;
61696;SDS011;47610;52.252;20.922;2023-07-29T19:08:34;4.50;;;2.70;;
61696;SDS011;47610;52.252;20.922;2023-07-29T19:13:37;3.60;;;2.40;;
61696;SDS011;47610;52.252;20.922;2023-07-29T19:18:40;7.30;;;2.50;;
61696;SDS011;47610;52.252;20.922;2023-07-29T19:23:43;3.30;;;2.50;;
61696;SDS011;47610;52.252;20.922;2023-07-29T19:28:47;5.60;;;2.70;;
61696;SDS011;47610;52.252;20.922;2023-07-29T19:33:50;5.00;;;2.50;;
61696;SDS011;47610;52.252;20.922;2023-07-29T19:43:55;3.30;;;2.40;;
61696;SDS011;47610;52.252;20.922;2023-07-29T19:48:58;6.50;;;2.90;;
61696;SDS011;47610;52.252;20.922;2023-07-29T19:54:01;4.20;;;2.90;;
61696;SDS011;47610;52.252;20.922;2023-07-29T19:59:04;5.30;;;3.00;;
61696;SDS011;47610;52.252;20.922;2023-07-29T20:04:07;5.20;;;2.80;;
61696;SDS011;47610;52.252;20.922;2023-07-29T20:09:11;6.20;;;3.00;;
61696;SDS011;47610;52.252;20.922;2023-07-29T20:14:14;6.20;;;3.00;;
61696;SDS011;47610;52.252;20.922;2023-07-29T20:19:17;5.00;;;3.80;;
61696;SDS011;47610;52.252;20.922;2023-07-29T20:24:20;4.50;;;3.40;;
61696;SDS011;47610;52.252;20.922;2023-07-29T20:29:23;4.60;;;3.60;;
61696;SDS011;47610;52.252;20.922;2023-07-29T20:34:28;4.90;;;3.20;;
61696;SDS011;47610;52.252;20.922;2023-07-29T20:39:31;3.90;;;3.50;;
61696;SDS011;47610;52.252;20.922;2023-07-29T20:44:34;5.80;;;3.40;;
61696;SDS011;47610;52.252;20.922;2023-07-29T20:49:37;5.60;;;3.20;;
61696;SDS011;47610;52.252;20.922;2023-07-29T20:54:43;5.10;;;3.50;;
61696;SDS011;47610;52.252;20.922;2023-07-29T20:59:46;3.90;;;3.00;;
61696;SDS011;47610;52.252;20.922;2023-07-29T21:04:50;6.50;;;3.10;;
61696;SDS011;47610;52.252;20.922;2023-07-29T21:09:53;4.70;;;1.90;;
61696;SDS011;47610;52.252;20.922;2023-07-29T21:14:56;5.50;;;1.30;;
61696;SDS011;47610;52.252;20.922;2023-07-29T21:19:59;7.80;;;2.00;;
61696;SDS011;47610;52.252;20.922;2023-07-29T21:25:02;3.50;;;1.80;;
61696;SDS011;47610;52.252;20.922;2023-07-29T21:30:07;4.70;;;1.50;;
61696;SDS011;47610;52.252;20.922;2023-07-29T21:35:10;4.00;;;1.70;;
61696;SDS011;47610;52.252;20.922;2023-07-29T21:40:14;3.60;;;1.70;;
61696;SDS011;47610;52.252;20.922;2023-07-29T21:45:17;4.20;;;1.70;;
61696;SDS011;47610;52.252;20.922;2023-07-29T21:50:20;4.00;;;1.60;;
61696;SDS011;47610;52.252;20.922;2023-07-29T21:55:23;6.70;;;1.90;;
61696;SDS011;47610;52.252;20.922;2023-07-29T22:00:26;5.60;;;1.60;;
61696;SDS011;47610;52.252;20.922;2023-07-29T22:05:30;4.10;;;1.80;;
61696;SDS011;47610;52.252;20.922;2023-07-29T22:10:33;2.60;;;1.40;;
61696;SDS011;47610;52.252;20.922;2023-07-29T22:15:40;3.40;;;1.50;;
61696;SDS011;47610;52.252;20.922;2023-07-29T22:20:52;3.70;;;1.50;;
61696;SDS011;47610;52.252;20.922;2023-07-29T22:25:58;3.70;;;1.40;;
61696;SDS011;47610;52.252;20.922;2023-07-29T22:31:01;3.00;;;1.50;;
61696;SDS011;47610;52.252;20.922;2023-07-29T22:36:05;3.50;;;1.60;;
61696;SDS011;47610;52.252;20.922;2023-07-29T22:41:08;4.40;;;1.70;;
61696;SDS011;47610;52.252;20.922;2023-07-29T22:46:11;3.90;;;1.70;;
61696;SDS011;47610;52.252;20.922;2023-07-29T22:51:14;3.20;;;1.80;;
61696;SDS011;47610;52.252;20.922;2023-07-29T22:56:17;4.70;;;2.00;;
61696;SDS011;47610;52.252;20.922;2023-07-29T23:01:20;4.00;;;1.70;;
61696;SDS011;47610;52.252;20.922;2023-07-29T23:06:23;5.50;;;1.90;;
61696;SDS011;47610;52.252;20.922;2023-07-29T23:11:26;4.90;;;1.80;;
61696;SDS011;47610;52.252;20.922;2023-07-29T23:16:29;6.70;;;2.10;;
61696;SDS011;47610;52.252;20.922;2023-07-29T23:21:32;4.10;;;2.10;;
61696;SDS011;47610;52.252;20.922;2023-07-29T23:26:35;3.20;;;1.90;;
61696;SDS011;47610;52.252;20.922;2023-07-29T23:31:38;3.90;;;1.80;;
61696;SDS011;47610;52.252;20.922;2023-07-29T23:36:42;6.50;;;2.20;;
61696;SDS011;47610;52.252;20.922;2023-07-29T23:41:45;4.90;;;2.20;;
61696;SDS011;47610;52.252;20.922;2023-07-29T23:46:48;4.10;;;2.00;;
61696;SDS011;47610;52.252;20.922;2023-07-29T23:51:51;3.50;;;1.90;;
61696;SDS011;47610;52.252;20.922;2023-07-29T23:56:54;3.30;;;1.80;;
